sensor_id;sensor_type;location;lat;lon;timestamp;P1;durP1;ratioP1;P2;durP2;ratioP2
48859;SDS011;34679;51.436;-2.518;2022-11-15T00:00:48;14.13;;;1.45;;
48859;SDS011;34679;51.436;-2.518;2022-11-15T00:03:15;13.02;;;1.65;;
48859;SDS011;34679;51.436;-2.518;2022-11-15T00:05:45;18.25;;;1.85;;
48859;SDS011;34679;51.436;-2.518;2022-11-15T00:08:11;9.93;;;1.48;;
48859;SDS011;34679;51.436;-2.518;2022-11-15T00:10:37;10.48;;;2.00;;
48859;SDS011;34679;51.436;-2.518;2022-11-15T00:13:06;14.20;;;1.67;;
48859;SDS011;34679;51.436;-2.518;2022-11-15T00:15:37;15.38;;;1.92;;
48859;SDS011;34679;51.436;-2.518;2022-11-15T00:18:04;6.82;;;2.90;;
48859;SDS011;34679;51.436;-2.518;2022-11-15T00:20:31;18.55;;;2.33;;
48859;SDS011;34679;51.436;-2.518;2022-11-15T00:22:59;12.75;;;1.70;;
48859;SDS011;34679;51.436;-2.518;2022-11-15T00:25:24;9.98;;;1.85;;
48859;SDS011;34679;51.436;-2.518;2022-11-15T00:27:54;6.82;;;1.42;;
48859;SDS011;34679;51.436;-2.518;2022-11-15T00:30:21;11.63;;;1.45;;
48859;SDS011;34679;51.436;-2.518;2022-11-15T00:32:47;16.20;;;1.55;;
48859;SDS011;34679;51.436;-2.518;2022-11-15T00:35:13;14.50;;;1.80;;
48859;SDS011;34679;51.436;-2.518;2022-11-15T00:37:39;13.27;;;1.70;;
48859;SDS011;34679;51.436;-2.518;2022-11-15T00:40:05;8.18;;;1.45;;
48859;SDS011;34679;51.436;-2.518;2022-11-15T00:42:32;13.52;;;1.88;;
48859;SDS011;34679;51.436;-2.518;2022-11-15T00:44:57;13.77;;;2.10;;
48859;SDS011;34679;51.436;-2.518;2022-11-15T00:47:23;12.48;;;1.63;;
48859;SDS011;34679;51.436;-2.518;2022-11-15T00:49:49;13.70;;;1.58;;
48859;SDS011;34679;51.436;-2.518;2022-11-15T00:52:14;8.38;;;1.75;;
48859;SDS011;34679;51.436;-2.518;2022-11-15T00:54:40;15.98;;;1.52;;
48859;SDS011;34679;51.436;-2.518;2022-11-15T00:57:05;14.95;;;2.33;;
48859;SDS011;34679;51.436;-2.518;2022-11-15T00:59:31;11.05;;;1.85;;
48859;SDS011;34679;51.436;-2.518;2022-11-15T01:01:57;15.50;;;1.70;;
48859;SDS011;34679;51.436;-2.518;2022-11-15T01:04:22;14.77;;;1.95;;
48859;SDS011;34679;51.436;-2.518;2022-11-15T01:06:48;9.98;;;1.20;;
48859;SDS011;34679;51.436;-2.518;2022-11-15T01:09:14;11.57;;;1.67;;
48859;SDS011;34679;51.436;-2.518;2022-11-15T01:11:39;10.98;;;2.33;;
48859;SDS011;34679;51.436;-2.518;2022-11-15T01:14:05;14.15;;;2.95;;
48859;SDS011;34679;51.436;-2.518;2022-11-15T01:16:31;12.35;;;1.15;;
48859;SDS011;34679;51.436;-2.518;2022-11-15T01:18:58;17.80;;;1.63;;
48859;SDS011;34679;51.436;-2.518;2022-11-15T01:21:24;11.48;;;1.48;;
48859;SDS011;34679;51.436;-2.518;2022-11-15T01:23:52;11.98;;;1.75;;
48859;SDS011;34679;51.436;-2.518;2022-11-15T01:26:20;22.67;;;4.18;;
48859;SDS011;34679;51.436;-2.518;2022-11-15T01:28:45;12.82;;;2.88;;
48859;SDS011;34679;51.436;-2.518;2022-11-15T01:31:12;20.05;;;1.85;;
48859;SDS011;34679;51.436;-2.518;2022-11-15T01:33:39;12.55;;;1.73;;
48859;SDS011;34679;51.436;-2.518;2022-11-15T01:36:06;12.88;;;1.80;;
48859;SDS011;34679;51.436;-2.518;2022-11-15T01:38:35;11.30;;;1.50;;
48859;SDS011;34679;51.436;-2.518;2022-11-15T01:41:00;13.88;;;2.42;;
48859;SDS011;34679;51.436;-2.518;2022-11-15T01:43:27;10.98;;;1.88;;
48859;SDS011;34679;51.436;-2.518;2022-11-15T01:46:01;8.82;;;1.30;;
48859;SDS011;34679;51.436;-2.518;2022-11-15T01:48:48;12.88;;;1.40;;
48859;SDS011;34679;51.436;-2.518;2022-11-15T01:51:17;10.52;;;1.58;;
48859;SDS011;34679;51.436;-2.518;2022-11-15T01:53:45;5.07;;;1.05;;
48859;SDS011;34679;51.436;-2.518;2022-11-15T01:56:16;14.00;;;1.88;;
48859;SDS011;34679;51.436;-2.518;2022-11-15T01:58:44;14.50;;;2.35;;
48859;SDS011;34679;51.436;-2.518;2022-11-15T02:01:11;9.48;;;1.83;;
48859;SDS011;34679;51.436;-2.518;2022-11-15T02:03:46;13.35;;;1.40;;
48859;SDS011;34679;51.436;-2.518;2022-11-15T02:06:21;10.48;;;1.23;;
48859;SDS011;34679;51.436;-2.518;2022-11-15T02:08:47;10.77;;;1.63;;
48859;SDS011;34679;51.436;-2.518;2022-11-15T02:11:14;11.13;;;1.73;;
48859;SDS011;34679;51.436;-2.518;2022-11-15T02:13:39;14.48;;;2.65;;
48859;SDS011;34679;51.436;-2.518;2022-11-15T02:18:52;17.65;;;1.67;;
48859;SDS011;34679;51.436;-2.518;2022-11-15T02:29:07;13.13;;;2.75;;
48859;SDS011;34679;51.436;-2.518;2022-11-15T02:32:21;13.13;;;2.03;;
48859;SDS011;34679;51.436;-2.518;2022-11-15T02:37:44;13.32;;;1.83;;
48859;SDS011;34679;51.436;-2.518;2022-11-15T02:43:10;6.25;;;1.70;;
48859;SDS011;34679;51.436;-2.518;2022-11-15T02:46:01;12.30;;;1.45;;
48859;SDS011;34679;51.436;-2.518;2022-11-15T02:48:33;9.18;;;1.65;;
48859;SDS011;34679;51.436;-2.518;2022-11-15T02:50:59;10.68;;;1.27;;
48859;SDS011;34679;51.436;-2.518;2022-11-15T02:53:26;16.08;;;2.42;;
48859;SDS011;34679;51.436;-2.518;2022-11-15T02:55:53;12.18;;;2.08;;
48859;SDS011;34679;51.436;-2.518;2022-11-15T02:58:25;7.68;;;1.98;;
48859;SDS011;34679;51.436;-2.518;2022-11-15T03:03:52;8.20;;;1.38;;
48859;SDS011;34679;51.436;-2.518;2022-11-15T03:07:05;6.65;;;0.80;;
48859;SDS011;34679;51.436;-2.518;2022-11-15T03:15:21;7.40;;;1.17;;
48859;SDS011;34679;51.436;-2.518;2022-11-15T03:18:00;7.30;;;1.00;;
48859;SDS011;34679;51.436;-2.518;2022-11-15T03:20:31;6.38;;;0.52;;
48859;SDS011;34679;51.436;-2.518;2022-11-15T03:23:17;8.25;;;1.02;;
48859;SDS011;34679;51.436;-2.518;2022-11-15T03:25:45;5.38;;;0.77;;
48859;SDS011;34679;51.436;-2.518;2022-11-15T03:28:15;6.53;;;0.88;;
48859;SDS011;34679;51.436;-2.518;2022-11-15T03:30:47;8.40;;;0.90;;
48859;SDS011;34679;51.436;-2.518;2022-11-15T03:33:16;2.38;;;0.70;;
48859;SDS011;34679;51.436;-2.518;2022-11-15T03:35:44;4.10;;;0.70;;
48859;SDS011;34679;51.436;-2.518;2022-11-15T03:38:25;0.52;;;0.45;;
48859;SDS011;34679;51.436;-2.518;2022-11-15T03:40:57;7.50;;;1.95;;
48859;SDS011;34679;51.436;-2.518;2022-11-15T03:45:54;7.35;;;0.88;;
48859;SDS011;34679;51.436;-2.518;2022-11-15T03:48:24;1.85;;;0.63;;
48859;SDS011;34679;51.436;-2.518;2022-11-15T03:50:53;2.67;;;0.45;;
48859;SDS011;34679;51.436;-2.518;2022-11-15T03:53:20;0.68;;;0.30;;
48859;SDS011;34679;51.436;-2.518;2022-11-15T03:55:46;1.77;;;0.43;;
48859;SDS011;34679;51.436;-2.518;2022-11-15T03:58:11;2.90;;;0.43;;
48859;SDS011;34679;51.436;-2.518;2022-11-15T04:00:37;3.40;;;0.70;;
48859;SDS011;34679;51.436;-2.518;2022-11-15T04:03:03;2.80;;;0.75;;
48859;SDS011;34679;51.436;-2.518;2022-11-15T04:05:28;2.72;;;0.55;;
48859;SDS011;34679;51.436;-2.518;2022-11-15T04:07:54;1.58;;;1.17;;
48859;SDS011;34679;51.436;-2.518;2022-11-15T04:10:20;0.75;;;0.28;;
48859;SDS011;34679;51.436;-2.518;2022-11-15T04:12:46;1.88;;;0.32;;
48859;SDS011;34679;51.436;-2.518;2022-11-15T04:15:16;0.52;;;0.30;;
48859;SDS011;34679;51.436;-2.518;2022-11-15T04:23:36;0.65;;;0.40;;
48859;SDS011;34679;51.436;-2.518;2022-11-15T04:26:30;0.93;;;0.30;;
48859;SDS011;34679;51.436;-2.518;2022-11-15T04:28:56;0.25;;;0.20;;
48859;SDS011;34679;51.436;-2.518;2022-11-15T04:31:40;1.50;;;0.30;;
48859;SDS011;34679;51.436;-2.518;2022-11-15T04:34:06;0.40;;;0.15;;
48859;SDS011;34679;51.436;-2.518;2022-11-15T04:36:32;1.40;;;0.15;;
48859;SDS011;34679;51.436;-2.518;2022-11-15T04:39:16;0.90;;;0.30;;
48859;SDS011;34679;51.436;-2.518;2022-11-15T04:41:42;0.47;;;0.25;;
48859;SDS011;34679;51.436;-2.518;2022-11-15T04:44:08;0.77;;;0.20;;
48859;SDS011;34679;51.436;-2.518;2022-11-15T04:46:34;3.65;;;0.30;;
48859;SDS011;34679;51.436;-2.518;2022-11-15T04:49:00;1.45;;;0.20;;
48859;SDS011;34679;51.436;-2.518;2022-11-15T04:51:26;2.03;;;0.22;;
48859;SDS011;34679;51.436;-2.518;2022-11-15T04:53:51;2.03;;;0.52;;
48859;SDS011;34679;51.436;-2.518;2022-11-15T04:56:17;0.50;;;0.50;;
48859;SDS011;34679;51.436;-2.518;2022-11-15T04:58:43;3.03;;;0.30;;
48859;SDS011;34679;51.436;-2.518;2022-11-15T05:01:12;1.58;;;0.30;;
48859;SDS011;34679;51.436;-2.518;2022-11-15T05:03:40;2.47;;;0.40;;
48859;SDS011;34679;51.436;-2.518;2022-11-15T05:06:25;2.13;;;0.63;;
48859;SDS011;34679;51.436;-2.518;2022-11-15T05:08:51;1.50;;;0.30;;
48859;SDS011;34679;51.436;-2.518;2022-11-15T05:11:17;5.40;;;0.40;;
48859;SDS011;34679;51.436;-2.518;2022-11-15T05:13:43;1.98;;;0.57;;
48859;SDS011;34679;51.436;-2.518;2022-11-15T05:16:08;2.17;;;0.30;;
48859;SDS011;34679;51.436;-2.518;2022-11-15T05:18:34;2.05;;;0.30;;
48859;SDS011;34679;51.436;-2.518;2022-11-15T05:21:04;2.13;;;0.35;;
48859;SDS011;34679;51.436;-2.518;2022-11-15T05:23:35;3.50;;;0.32;;
48859;SDS011;34679;51.436;-2.518;2022-11-15T05:26:01;1.77;;;0.57;;
48859;SDS011;34679;51.436;-2.518;2022-11-15T05:28:28;3.50;;;0.40;;
48859;SDS011;34679;51.436;-2.518;2022-11-15T05:31:00;3.30;;;0.52;;
48859;SDS011;34679;51.436;-2.518;2022-11-15T05:33:26;3.20;;;0.40;;
48859;SDS011;34679;51.436;-2.518;2022-11-15T05:35:54;3.97;;;0.75;;
48859;SDS011;34679;51.436;-2.518;2022-11-15T05:38:27;4.78;;;0.60;;
48859;SDS011;34679;51.436;-2.518;2022-11-15T05:40:53;4.93;;;0.60;;
48859;SDS011;34679;51.436;-2.518;2022-11-15T05:43:19;6.30;;;0.43;;
48859;SDS011;34679;51.436;-2.518;2022-11-15T05:45:45;8.75;;;1.33;;
48859;SDS011;34679;51.436;-2.518;2022-11-15T05:48:11;3.97;;;0.50;;
48859;SDS011;34679;51.436;-2.518;2022-11-15T05:50:38;3.10;;;0.32;;
48859;SDS011;34679;51.436;-2.518;2022-11-15T05:53:07;3.53;;;0.63;;
48859;SDS011;34679;51.436;-2.518;2022-11-15T05:55:34;0.93;;;0.40;;
48859;SDS011;34679;51.436;-2.518;2022-11-15T05:58:02;2.28;;;0.60;;
48859;SDS011;34679;51.436;-2.518;2022-11-15T06:00:28;6.93;;;0.93;;
48859;SDS011;34679;51.436;-2.518;2022-11-15T06:02:53;5.47;;;0.82;;
48859;SDS011;34679;51.436;-2.518;2022-11-15T06:05:19;3.40;;;0.50;;
48859;SDS011;34679;51.436;-2.518;2022-11-15T06:07:45;2.20;;;0.40;;
48859;SDS011;34679;51.436;-2.518;2022-11-15T06:10:11;0.70;;;0.30;;
48859;SDS011;34679;51.436;-2.518;2022-11-15T06:12:36;4.40;;;0.90;;
48859;SDS011;34679;51.436;-2.518;2022-11-15T06:15:02;3.10;;;0.60;;
48859;SDS011;34679;51.436;-2.518;2022-11-15T06:17:28;4.57;;;1.08;;
48859;SDS011;34679;51.436;-2.518;2022-11-15T06:19:54;4.63;;;0.70;;
48859;SDS011;34679;51.436;-2.518;2022-11-15T06:22:19;1.48;;;0.30;;
48859;SDS011;34679;51.436;-2.518;2022-11-15T06:24:45;1.05;;;0.50;;
48859;SDS011;34679;51.436;-2.518;2022-11-15T06:27:11;1.88;;;0.50;;
48859;SDS011;34679;51.436;-2.518;2022-11-15T06:29:37;3.13;;;1.20;;
48859;SDS011;34679;51.436;-2.518;2022-11-15T06:32:03;2.42;;;0.52;;
48859;SDS011;34679;51.436;-2.518;2022-11-15T06:34:29;5.25;;;0.57;;
48859;SDS011;34679;51.436;-2.518;2022-11-15T06:36:54;7.15;;;0.77;;
48859;SDS011;34679;51.436;-2.518;2022-11-15T06:39:20;4.22;;;0.55;;
48859;SDS011;34679;51.436;-2.518;2022-11-15T06:41:46;2.85;;;1.17;;
48859;SDS011;34679;51.436;-2.518;2022-11-15T06:44:11;5.00;;;0.73;;
48859;SDS011;34679;51.436;-2.518;2022-11-15T06:46:37;1.55;;;0.57;;
48859;SDS011;34679;51.436;-2.518;2022-11-15T06:49:03;5.03;;;0.95;;
48859;SDS011;34679;51.436;-2.518;2022-11-15T06:51:28;4.28;;;0.60;;
48859;SDS011;34679;51.436;-2.518;2022-11-15T06:53:54;4.85;;;0.70;;
48859;SDS011;34679;51.436;-2.518;2022-11-15T06:56:20;3.85;;;0.80;;
48859;SDS011;34679;51.436;-2.518;2022-11-15T06:58:45;1.63;;;1.00;;
48859;SDS011;34679;51.436;-2.518;2022-11-15T07:01:11;1.50;;;0.60;;
48859;SDS011;34679;51.436;-2.518;2022-11-15T07:03:39;4.45;;;0.90;;
48859;SDS011;34679;51.436;-2.518;2022-11-15T07:06:06;4.07;;;0.80;;
48859;SDS011;34679;51.436;-2.518;2022-11-15T07:08:33;4.55;;;0.70;;
48859;SDS011;34679;51.436;-2.518;2022-11-15T07:11:00;4.53;;;1.05;;
48859;SDS011;34679;51.436;-2.518;2022-11-15T07:13:28;5.68;;;0.80;;
48859;SDS011;34679;51.436;-2.518;2022-11-15T07:15:57;7.97;;;3.17;;
48859;SDS011;34679;51.436;-2.518;2022-11-15T07:18:26;3.90;;;1.10;;
48859;SDS011;34679;51.436;-2.518;2022-11-15T07:20:52;13.65;;;0.90;;
48859;SDS011;34679;51.436;-2.518;2022-11-15T07:23:18;5.55;;;0.90;;
48859;SDS011;34679;51.436;-2.518;2022-11-15T07:25:43;5.85;;;0.80;;
48859;SDS011;34679;51.436;-2.518;2022-11-15T07:28:09;5.05;;;0.70;;
48859;SDS011;34679;51.436;-2.518;2022-11-15T07:30:35;8.40;;;0.80;;
48859;SDS011;34679;51.436;-2.518;2022-11-15T07:33:00;4.13;;;0.90;;
48859;SDS011;34679;51.436;-2.518;2022-11-15T07:35:27;5.00;;;0.82;;
48859;SDS011;34679;51.436;-2.518;2022-11-15T07:37:57;2.92;;;0.47;;
48859;SDS011;34679;51.436;-2.518;2022-11-15T07:40:25;2.13;;;0.50;;
48859;SDS011;34679;51.436;-2.518;2022-11-15T07:42:51;4.85;;;0.80;;
48859;SDS011;34679;51.436;-2.518;2022-11-15T07:45:17;5.38;;;0.60;;
48859;SDS011;34679;51.436;-2.518;2022-11-15T07:47:47;2.45;;;0.60;;
48859;SDS011;34679;51.436;-2.518;2022-11-15T07:50:14;6.35;;;0.80;;
48859;SDS011;34679;51.436;-2.518;2022-11-15T07:52:41;5.22;;;0.80;;
48859;SDS011;34679;51.436;-2.518;2022-11-15T07:55:07;6.50;;;0.60;;
48859;SDS011;34679;51.436;-2.518;2022-11-15T07:57:33;3.15;;;0.50;;
48859;SDS011;34679;51.436;-2.518;2022-11-15T07:59:58;4.20;;;0.60;;
48859;SDS011;34679;51.436;-2.518;2022-11-15T08:02:24;2.08;;;0.63;;
48859;SDS011;34679;51.436;-2.518;2022-11-15T08:04:50;5.22;;;0.55;;
48859;SDS011;34679;51.436;-2.518;2022-11-15T08:07:15;3.60;;;0.65;;
48859;SDS011;34679;51.436;-2.518;2022-11-15T08:09:41;3.38;;;0.60;;
48859;SDS011;34679;51.436;-2.518;2022-11-15T08:12:07;3.75;;;0.80;;
48859;SDS011;34679;51.436;-2.518;2022-11-15T08:14:32;2.03;;;0.40;;
48859;SDS011;34679;51.436;-2.518;2022-11-15T08:16:58;2.53;;;0.50;;
48859;SDS011;34679;51.436;-2.518;2022-11-15T08:19:24;5.72;;;0.70;;
48859;SDS011;34679;51.436;-2.518;2022-11-15T08:21:49;4.03;;;0.47;;
48859;SDS011;34679;51.436;-2.518;2022-11-15T08:24:15;3.13;;;0.95;;
48859;SDS011;34679;51.436;-2.518;2022-11-15T08:26:41;1.45;;;0.25;;
48859;SDS011;34679;51.436;-2.518;2022-11-15T08:29:07;2.63;;;0.60;;
48859;SDS011;34679;51.436;-2.518;2022-11-15T08:31:33;2.33;;;0.40;;
48859;SDS011;34679;51.436;-2.518;2022-11-15T08:34:01;0.70;;;0.32;;
48859;SDS011;34679;51.436;-2.518;2022-11-15T08:36:27;2.20;;;0.52;;
48859;SDS011;34679;51.436;-2.518;2022-11-15T08:38:53;1.88;;;0.30;;
48859;SDS011;34679;51.436;-2.518;2022-11-15T08:41:29;4.68;;;0.40;;
48859;SDS011;34679;51.436;-2.518;2022-11-15T08:43:57;2.65;;;0.40;;
48859;SDS011;34679;51.436;-2.518;2022-11-15T08:46:22;6.05;;;0.70;;
48859;SDS011;34679;51.436;-2.518;2022-11-15T08:48:48;3.45;;;0.65;;
48859;SDS011;34679;51.436;-2.518;2022-11-15T08:51:14;5.05;;;0.50;;
48859;SDS011;34679;51.436;-2.518;2022-11-15T08:53:41;4.32;;;0.50;;
48859;SDS011;34679;51.436;-2.518;2022-11-15T08:56:07;3.20;;;0.50;;
48859;SDS011;34679;51.436;-2.518;2022-11-15T08:58:34;1.77;;;0.40;;
48859;SDS011;34679;51.436;-2.518;2022-11-15T09:01:00;3.25;;;0.65;;
48859;SDS011;34679;51.436;-2.518;2022-11-15T09:03:27;1.85;;;0.38;;
48859;SDS011;34679;51.436;-2.518;2022-11-15T09:05:56;0.20;;;0.15;;
48859;SDS011;34679;51.436;-2.518;2022-11-15T09:08:24;0.50;;;0.20;;
48859;SDS011;34679;51.436;-2.518;2022-11-15T09:11:02;1.17;;;0.20;;
48859;SDS011;34679;51.436;-2.518;2022-11-15T09:13:28;0.93;;;0.32;;
48859;SDS011;34679;51.436;-2.518;2022-11-15T09:15:57;2.95;;;0.40;;
48859;SDS011;34679;51.436;-2.518;2022-11-15T09:18:24;0.75;;;0.30;;
48859;SDS011;34679;51.436;-2.518;2022-11-15T09:20:50;1.27;;;0.50;;
48859;SDS011;34679;51.436;-2.518;2022-11-15T09:23:15;1.33;;;0.40;;
48859;SDS011;34679;51.436;-2.518;2022-11-15T09:25:41;1.45;;;0.55;;
48859;SDS011;34679;51.436;-2.518;2022-11-15T09:28:07;1.15;;;0.40;;
48859;SDS011;34679;51.436;-2.518;2022-11-15T09:30:33;3.67;;;0.60;;
48859;SDS011;34679;51.436;-2.518;2022-11-15T09:33:05;3.88;;;0.65;;
48859;SDS011;34679;51.436;-2.518;2022-11-15T09:35:35;6.40;;;0.70;;
48859;SDS011;34679;51.436;-2.518;2022-11-15T09:38:01;4.10;;;0.80;;
48859;SDS011;34679;51.436;-2.518;2022-11-15T09:40:27;2.30;;;0.40;;
48859;SDS011;34679;51.436;-2.518;2022-11-15T09:48:53;4.30;;;0.80;;
48859;SDS011;34679;51.436;-2.518;2022-11-15T09:51:27;2.45;;;0.68;;
48859;SDS011;34679;51.436;-2.518;2022-11-15T09:56:38;10.20;;;1.10;;
48859;SDS011;34679;51.436;-2.518;2022-11-15T10:05:22;5.90;;;1.10;;
48859;SDS011;34679;51.436;-2.518;2022-11-15T10:10:43;6.88;;;1.23;;
48859;SDS011;34679;51.436;-2.518;2022-11-15T10:13:46;7.07;;;1.10;;
48859;SDS011;34679;51.436;-2.518;2022-11-15T10:21:32;7.28;;;1.80;;
48859;SDS011;34679;51.436;-2.518;2022-11-15T10:24:20;4.78;;;1.42;;
48859;SDS011;34679;51.436;-2.518;2022-11-15T10:26:51;3.60;;;1.20;;
48859;SDS011;34679;51.436;-2.518;2022-11-15T10:29:23;4.70;;;1.20;;
48859;SDS011;34679;51.436;-2.518;2022-11-15T10:31:50;9.30;;;1.42;;
48859;SDS011;34679;51.436;-2.518;2022-11-15T10:34:18;10.60;;;1.20;;
48859;SDS011;34679;51.436;-2.518;2022-11-15T10:36:46;8.05;;;1.45;;
48859;SDS011;34679;51.436;-2.518;2022-11-15T10:39:28;7.00;;;1.15;;
48859;SDS011;34679;51.436;-2.518;2022-11-15T10:41:54;10.98;;;1.83;;
48859;SDS011;34679;51.436;-2.518;2022-11-15T10:44:21;7.45;;;1.45;;
48859;SDS011;34679;51.436;-2.518;2022-11-15T10:49:25;8.55;;;1.45;;
48859;SDS011;34679;51.436;-2.518;2022-11-15T10:51:57;11.60;;;1.42;;
48859;SDS011;34679;51.436;-2.518;2022-11-15T10:54:24;6.50;;;1.67;;
48859;SDS011;34679;51.436;-2.518;2022-11-15T10:57:15;6.68;;;1.33;;
48859;SDS011;34679;51.436;-2.518;2022-11-15T10:59:47;6.55;;;1.17;;
48859;SDS011;34679;51.436;-2.518;2022-11-15T11:02:32;7.20;;;1.85;;
48859;SDS011;34679;51.436;-2.518;2022-11-15T11:07:26;6.40;;;1.58;;
48859;SDS011;34679;51.436;-2.518;2022-11-15T11:10:04;7.32;;;1.35;;
48859;SDS011;34679;51.436;-2.518;2022-11-15T11:12:42;5.85;;;2.03;;
48859;SDS011;34679;51.436;-2.518;2022-11-15T11:15:12;9.50;;;1.88;;
48859;SDS011;34679;51.436;-2.518;2022-11-15T11:18:04;10.45;;;1.95;;
48859;SDS011;34679;51.436;-2.518;2022-11-15T11:20:38;5.68;;;1.50;;
48859;SDS011;34679;51.436;-2.518;2022-11-15T11:25:56;8.27;;;1.88;;
48859;SDS011;34679;51.436;-2.518;2022-11-15T11:28:40;6.15;;;2.30;;
48859;SDS011;34679;51.436;-2.518;2022-11-15T11:36:57;6.93;;;1.45;;
48859;SDS011;34679;51.436;-2.518;2022-11-15T11:42:26;3.78;;;1.58;;
48859;SDS011;34679;51.436;-2.518;2022-11-15T11:47:40;7.70;;;1.38;;
48859;SDS011;34679;51.436;-2.518;2022-11-15T11:50:13;5.88;;;1.27;;
48859;SDS011;34679;51.436;-2.518;2022-11-15T11:52:43;5.00;;;1.13;;
48859;SDS011;34679;51.436;-2.518;2022-11-15T11:57:52;3.67;;;1.00;;
48859;SDS011;34679;51.436;-2.518;2022-11-15T12:00:38;7.45;;;1.38;;
48859;SDS011;34679;51.436;-2.518;2022-11-15T12:03:12;6.15;;;1.58;;
48859;SDS011;34679;51.436;-2.518;2022-11-15T12:05:51;6.18;;;1.00;;
48859;SDS011;34679;51.436;-2.518;2022-11-15T12:10:48;4.93;;;1.08;;
48859;SDS011;34679;51.436;-2.518;2022-11-15T12:13:25;5.90;;;1.40;;
48859;SDS011;34679;51.436;-2.518;2022-11-15T12:16:02;9.68;;;2.28;;
48859;SDS011;34679;51.436;-2.518;2022-11-15T12:18:37;3.10;;;1.17;;
48859;SDS011;34679;51.436;-2.518;2022-11-15T12:21:07;7.43;;;1.45;;
48859;SDS011;34679;51.436;-2.518;2022-11-15T12:23:49;5.18;;;1.50;;
48859;SDS011;34679;51.436;-2.518;2022-11-15T12:26:24;8.23;;;1.45;;
48859;SDS011;34679;51.436;-2.518;2022-11-15T12:34:01;9.95;;;1.70;;
48859;SDS011;34679;51.436;-2.518;2022-11-15T12:36:39;6.20;;;1.45;;
48859;SDS011;34679;51.436;-2.518;2022-11-15T12:39:07;10.38;;;1.50;;
48859;SDS011;34679;51.436;-2.518;2022-11-15T12:41:38;11.43;;;2.78;;
48859;SDS011;34679;51.436;-2.518;2022-11-15T12:44:12;11.13;;;2.03;;
48859;SDS011;34679;51.436;-2.518;2022-11-15T12:46:59;6.85;;;1.52;;
48859;SDS011;34679;51.436;-2.518;2022-11-15T13:02:33;6.22;;;1.55;;
48859;SDS011;34679;51.436;-2.518;2022-11-15T13:15:30;13.90;;;2.53;;
48859;SDS011;34679;51.436;-2.518;2022-11-15T13:17:57;10.88;;;2.00;;
48859;SDS011;34679;51.436;-2.518;2022-11-15T13:20:28;14.23;;;2.70;;
48859;SDS011;34679;51.436;-2.518;2022-11-15T13:28:02;12.38;;;2.00;;
48859;SDS011;34679;51.436;-2.518;2022-11-15T13:30:39;15.65;;;2.88;;
48859;SDS011;34679;51.436;-2.518;2022-11-15T13:38:40;10.38;;;2.55;;
48859;SDS011;34679;51.436;-2.518;2022-11-15T13:41:21;7.38;;;1.30;;
48859;SDS011;34679;51.436;-2.518;2022-11-15T13:43:53;15.95;;;1.70;;
48859;SDS011;34679;51.436;-2.518;2022-11-15T13:46:24;8.05;;;1.40;;
48859;SDS011;34679;51.436;-2.518;2022-11-15T13:48:58;12.32;;;1.67;;
48859;SDS011;34679;51.436;-2.518;2022-11-15T13:51:36;10.85;;;2.00;;
48859;SDS011;34679;51.436;-2.518;2022-11-15T13:56:37;14.95;;;1.52;;
48859;SDS011;34679;51.436;-2.518;2022-11-15T14:01:52;16.25;;;1.90;;
48859;SDS011;34679;51.436;-2.518;2022-11-15T14:04:20;17.00;;;1.50;;
48859;SDS011;34679;51.436;-2.518;2022-11-15T14:06:49;16.05;;;1.65;;
48859;SDS011;34679;51.436;-2.518;2022-11-15T14:12:21;12.55;;;1.70;;
48859;SDS011;34679;51.436;-2.518;2022-11-15T14:14:48;8.50;;;1.75;;
48859;SDS011;34679;51.436;-2.518;2022-11-15T14:19:54;9.60;;;1.35;;
48859;SDS011;34679;51.436;-2.518;2022-11-15T14:22:25;8.55;;;1.52;;
48859;SDS011;34679;51.436;-2.518;2022-11-15T14:30:33;8.82;;;1.45;;
48859;SDS011;34679;51.436;-2.518;2022-11-15T14:32:59;11.85;;;1.80;;
48859;SDS011;34679;51.436;-2.518;2022-11-15T14:35:24;13.50;;;2.47;;
48859;SDS011;34679;51.436;-2.518;2022-11-15T14:37:50;4.70;;;1.13;;
48859;SDS011;34679;51.436;-2.518;2022-11-15T14:40:20;6.40;;;1.58;;
48859;SDS011;34679;51.436;-2.518;2022-11-15T14:42:47;7.10;;;1.20;;
48859;SDS011;34679;51.436;-2.518;2022-11-15T14:45:18;7.50;;;1.83;;
48859;SDS011;34679;51.436;-2.518;2022-11-15T14:47:46;10.10;;;1.20;;
48859;SDS011;34679;51.436;-2.518;2022-11-15T14:50:13;8.23;;;1.65;;
48859;SDS011;34679;51.436;-2.518;2022-11-15T14:52:44;4.70;;;1.85;;
48859;SDS011;34679;51.436;-2.518;2022-11-15T14:55:23;5.13;;;1.20;;
48859;SDS011;34679;51.436;-2.518;2022-11-15T14:57:51;7.40;;;1.33;;
48859;SDS011;34679;51.436;-2.518;2022-11-15T15:00:18;6.40;;;1.25;;
48859;SDS011;34679;51.436;-2.518;2022-11-15T15:02:44;10.98;;;2.05;;
48859;SDS011;34679;51.436;-2.518;2022-11-15T15:05:22;7.05;;;1.98;;
48859;SDS011;34679;51.436;-2.518;2022-11-15T15:07:55;8.43;;;1.90;;
48859;SDS011;34679;51.436;-2.518;2022-11-15T15:10:21;6.25;;;1.58;;
48859;SDS011;34679;51.436;-2.518;2022-11-15T15:12:47;5.72;;;1.27;;
48859;SDS011;34679;51.436;-2.518;2022-11-15T15:15:17;4.57;;;1.23;;
48859;SDS011;34679;51.436;-2.518;2022-11-15T15:17:48;12.02;;;2.47;;
48859;SDS011;34679;51.436;-2.518;2022-11-15T15:20:14;6.03;;;1.20;;
48859;SDS011;34679;51.436;-2.518;2022-11-15T15:22:40;12.15;;;2.42;;
48859;SDS011;34679;51.436;-2.518;2022-11-15T15:25:15;8.77;;;1.10;;
48859;SDS011;34679;51.436;-2.518;2022-11-15T15:27:58;4.18;;;1.00;;
48859;SDS011;34679;51.436;-2.518;2022-11-15T15:30:24;5.85;;;1.25;;
48859;SDS011;34679;51.436;-2.518;2022-11-15T15:32:51;5.85;;;1.95;;
48859;SDS011;34679;51.436;-2.518;2022-11-15T15:35:17;5.53;;;1.00;;
48859;SDS011;34679;51.436;-2.518;2022-11-15T15:37:44;9.88;;;1.52;;
48859;SDS011;34679;51.436;-2.518;2022-11-15T15:40:15;5.80;;;1.02;;
48859;SDS011;34679;51.436;-2.518;2022-11-15T15:42:43;5.50;;;1.27;;
48859;SDS011;34679;51.436;-2.518;2022-11-15T15:45:08;8.27;;;1.52;;
48859;SDS011;34679;51.436;-2.518;2022-11-15T15:47:35;6.07;;;1.27;;
48859;SDS011;34679;51.436;-2.518;2022-11-15T15:50:02;12.25;;;2.42;;
48859;SDS011;34679;51.436;-2.518;2022-11-15T15:52:29;5.90;;;1.40;;
48859;SDS011;34679;51.436;-2.518;2022-11-15T15:54:55;5.32;;;0.95;;
48859;SDS011;34679;51.436;-2.518;2022-11-15T15:57:20;4.63;;;1.00;;
48859;SDS011;34679;51.436;-2.518;2022-11-15T15:59:46;8.90;;;1.52;;
48859;SDS011;34679;51.436;-2.518;2022-11-15T16:02:12;7.28;;;1.50;;
48859;SDS011;34679;51.436;-2.518;2022-11-15T16:04:38;7.90;;;1.45;;
48859;SDS011;34679;51.436;-2.518;2022-11-15T16:07:04;6.50;;;1.30;;
48859;SDS011;34679;51.436;-2.518;2022-11-15T16:09:30;6.25;;;1.50;;
48859;SDS011;34679;51.436;-2.518;2022-11-15T16:12:19;7.28;;;1.20;;
48859;SDS011;34679;51.436;-2.518;2022-11-15T16:14:44;7.95;;;1.20;;
48859;SDS011;34679;51.436;-2.518;2022-11-15T16:17:31;6.20;;;1.83;;
48859;SDS011;34679;51.436;-2.518;2022-11-15T16:20:04;8.55;;;1.45;;
48859;SDS011;34679;51.436;-2.518;2022-11-15T16:22:31;6.68;;;1.58;;
48859;SDS011;34679;51.436;-2.518;2022-11-15T16:24:56;6.45;;;2.10;;
48859;SDS011;34679;51.436;-2.518;2022-11-15T16:27:22;8.38;;;1.60;;
48859;SDS011;34679;51.436;-2.518;2022-11-15T16:29:48;9.70;;;1.60;;
48859;SDS011;34679;51.436;-2.518;2022-11-15T16:32:15;9.05;;;1.50;;
48859;SDS011;34679;51.436;-2.518;2022-11-15T16:34:40;6.93;;;1.60;;
48859;SDS011;34679;51.436;-2.518;2022-11-15T16:37:11;6.20;;;2.08;;
48859;SDS011;34679;51.436;-2.518;2022-11-15T16:39:47;10.10;;;2.45;;
48859;SDS011;34679;51.436;-2.518;2022-11-15T16:42:12;11.05;;;3.10;;
48859;SDS011;34679;51.436;-2.518;2022-11-15T16:44:38;8.43;;;2.63;;
48859;SDS011;34679;51.436;-2.518;2022-11-15T16:47:04;13.98;;;2.80;;
48859;SDS011;34679;51.436;-2.518;2022-11-15T16:49:29;10.00;;;3.15;;
48859;SDS011;34679;51.436;-2.518;2022-11-15T16:51:55;9.40;;;2.17;;
48859;SDS011;34679;51.436;-2.518;2022-11-15T16:54:21;8.77;;;1.98;;
48859;SDS011;34679;51.436;-2.518;2022-11-15T16:56:46;8.63;;;1.90;;
48859;SDS011;34679;51.436;-2.518;2022-11-15T16:59:16;8.75;;;1.77;;